createdAt,value
2023-02-23T00:00:34.685Z,100850.25
2023-02-23T00:03:14.535Z,100848.13
2023-02-23T00:05:43.176Z,100848.08
2023-02-23T00:08:11.062Z,100846.14
2023-02-23T00:10:39.512Z,100844.67
2023-02-23T00:13:07.364Z,100840.20
2023-02-23T00:15:36.174Z,100837.79
2023-02-23T00:18:04.597Z,100832.70
2023-02-23T00:20:32.711Z,100826.52
2023-02-23T00:23:00.645Z,100829.76
2023-02-23T00:25:31.019Z,100832.96
2023-02-23T00:27:59.277Z,100831.42
2023-02-23T00:30:27.182Z,100832.25
2023-02-23T00:32:55.152Z,100825.50
2023-02-23T00:35:25.244Z,100824.48
2023-02-23T00:37:53.184Z,100822.97
2023-02-23T00:40:22.970Z,100821.02
2023-02-23T00:42:52.358Z,100822.99
2023-02-23T00:45:21.306Z,100824.14
2023-02-23T00:47:49.273Z,100823.16
2023-02-23T00:50:18.072Z,100822.77
2023-02-23T00:52:47.584Z,100826.33
2023-02-23T00:55:15.536Z,100823.98
2023-02-23T00:57:43.454Z,100823.36
2023-02-23T01:00:21.536Z,100825.37
2023-02-23T01:02:49.572Z,100822.56
2023-02-23T01:05:17.788Z,100823.09
2023-02-23T01:07:46.425Z,100821.10
2023-02-23T01:10:20.146Z,100821.96
2023-02-23T01:12:51.782Z,100816.52
2023-02-23T01:15:21.047Z,100817.36
2023-02-23T01:17:49.139Z,100813.91
2023-02-23T01:20:18.969Z,100812.80
2023-02-23T01:22:51.285Z,100814.35
2023-02-23T01:25:19.321Z,100811.27
2023-02-23T01:27:47.207Z,100813.76
2023-02-23T01:30:15.797Z,100810.52
2023-02-23T01:32:45.311Z,100808.81
2023-02-23T01:35:13.948Z,100804.64
2023-02-23T01:37:43.959Z,100803.85
2023-02-23T01:40:29.350Z,100799.27
2023-02-23T01:43:13.491Z,100800.38
2023-02-23T01:45:44.426Z,100796.65
2023-02-23T01:48:20.392Z,100795.10
2023-02-23T01:51:08.797Z,100791.06
2023-02-23T01:53:48.095Z,100789.98
2023-02-23T01:56:23.965Z,100787.33
2023-02-23T01:58:57.737Z,100785.28
2023-02-23T02:01:25.757Z,100785.98
2023-02-23T02:04:02.251Z,100785.65
2023-02-23T02:06:31.526Z,100784.67
2023-02-23T02:09:16.318Z,100783.02
2023-02-23T02:11:46.483Z,100782.27
2023-02-23T02:14:23.756Z,100780.56
2023-02-23T02:17:07.099Z,100781.23
2023-02-23T02:20:36.578Z,100778.64
2023-02-23T02:23:43.770Z,100774.66
2023-02-23T02:26:51.527Z,100775.06
2023-02-23T02:30:13.964Z,100768.56
2023-02-23T02:33:26.739Z,100767.60
2023-02-23T02:36:50.008Z,100765.73
2023-02-23T02:39:44.993Z,100761.73
2023-02-23T02:42:35.007Z,100762.52
2023-02-23T02:45:22.186Z,100762.69
2023-02-23T02:48:10.761Z,100760.84
2023-02-23T02:50:58.165Z,100759.46
2023-02-23T02:53:35.221Z,100758.65
2023-02-23T02:56:06.665Z,100755.53
2023-02-23T02:58:39.093Z,100755.38
2023-02-23T03:01:33.416Z,100748.31
2023-02-23T03:04:38.470Z,100744.85
2023-02-23T03:07:50.038Z,100746.05
2023-02-23T03:10:55.818Z,100743.29
2023-02-23T03:14:02.992Z,100742.55
2023-02-23T03:17:03.365Z,100739.20
2023-02-23T03:20:04.558Z,100740.52
2023-02-23T03:22:59.375Z,100731.41
2023-02-23T03:26:04.174Z,100728.04
2023-02-23T03:29:09.800Z,100730.16
2023-02-23T03:32:08.142Z,100730.75
2023-02-23T03:35:01.590Z,100726.23
2023-02-23T03:38:30.516Z,100724.89
2023-02-23T03:41:19.581Z,100718.66
2023-02-23T03:44:17.531Z,100718.89
2023-02-23T03:47:06.623Z,100718.08
2023-02-23T03:49:58.306Z,100712.86
2023-02-23T03:52:58.568Z,100711.63
2023-02-23T03:55:52.871Z,100711.83
2023-02-23T03:59:02.404Z,100706.92
2023-02-23T04:01:51.329Z,100703.48
2023-02-23T04:04:41.398Z,100706.73
2023-02-23T04:07:29.056Z,100707.23
2023-02-23T04:10:15.622Z,100702.89
2023-02-23T04:13:10.617Z,100704.31
2023-02-23T04:15:46.781Z,100706.61
2023-02-23T04:18:23.580Z,100701.42
2023-02-23T04:20:52.524Z,100696.77
2023-02-23T04:23:22.845Z,100697.66
2023-02-23T04:25:52.554Z,100700.92
2023-02-23T04:28:21.846Z,100699.27
2023-02-23T04:30:52.446Z,100697.10
2023-02-23T04:33:22.103Z,100690.63
2023-02-23T04:35:52.425Z,100690.63
2023-02-23T04:38:22.419Z,100685.48
2023-02-23T04:40:51.399Z,100681.77
2023-02-23T04:43:19.953Z,100679.16
2023-02-23T04:45:47.936Z,100663.86
2023-02-23T04:48:21.559Z,100671.41
2023-02-23T04:50:53.154Z,100668.55
2023-02-23T04:53:21.536Z,100662.42
2023-02-23T04:55:49.542Z,100666.05
2023-02-23T04:58:17.590Z,100662.83
2023-02-23T05:00:45.490Z,100661.95
2023-02-23T05:03:13.475Z,100663.84
2023-02-23T05:05:41.529Z,100662.91
2023-02-23T05:08:10.326Z,100659.89
2023-02-23T05:10:40.237Z,100661.23
2023-02-23T05:13:08.578Z,100663.12
2023-02-23T05:15:38.609Z,100656.45
2023-02-23T05:18:08.035Z,100653.73
2023-02-23T05:20:35.932Z,100655.10
2023-02-23T05:23:04.474Z,100652.70
2023-02-23T05:25:33.365Z,100655.13
2023-02-23T05:28:01.221Z,100656.42
2023-02-23T05:30:29.227Z,100653.02
2023-02-23T05:32:57.177Z,100646.76
2023-02-23T05:35:25.129Z,100650.40
2023-02-23T05:37:53.048Z,100645.27
2023-02-23T05:40:20.956Z,100645.45
2023-02-23T05:42:48.886Z,100643.80
2023-02-23T05:45:16.909Z,100640.00
2023-02-23T05:47:44.828Z,100643.50
2023-02-23T05:50:12.703Z,100645.80
2023-02-23T05:52:41.919Z,100642.10
2023-02-23T05:55:15.202Z,100641.95
2023-02-23T05:57:43.824Z,100638.47
2023-02-23T06:00:15.250Z,100636.90
2023-02-23T06:02:43.149Z,100634.74
2023-02-23T06:05:13.580Z,100630.93
2023-02-23T06:07:43.698Z,100627.06
2023-02-23T06:10:12.155Z,100626.38
2023-02-23T06:12:40.091Z,100627.27
2023-02-23T06:15:08.631Z,100623.37
2023-02-23T06:17:36.809Z,100623.08
2023-02-23T06:20:07.158Z,100621.67
2023-02-23T06:22:37.575Z,100616.23
2023-02-23T06:25:08.796Z,100615.55
2023-02-23T06:27:39.086Z,100615.70
2023-02-23T06:30:08.487Z,100614.01
2023-02-23T06:32:36.470Z,100615.78
2023-02-23T06:35:07.028Z,100612.78
2023-02-23T06:37:36.321Z,100615.89
2023-02-23T06:40:05.902Z,100619.66
2023-02-23T06:42:35.905Z,100621.92
2023-02-23T06:45:04.974Z,100629.83
2023-02-23T06:47:33.655Z,100631.58
2023-02-23T06:50:03.981Z,100633.74
2023-02-23T06:52:32.120Z,100637.13
2023-02-23T06:54:59.956Z,100641.11
2023-02-23T06:57:27.873Z,100640.58
2023-02-23T06:59:55.888Z,100639.16
2023-02-23T07:02:23.871Z,100637.14
2023-02-23T07:04:51.829Z,100633.17
2023-02-23T07:07:19.915Z,100635.91
2023-02-23T07:09:47.897Z,100628.66
2023-02-23T07:12:15.870Z,100629.10
2023-02-23T07:14:43.936Z,100626.00
2023-02-23T07:17:12.707Z,100626.44
2023-02-23T07:19:40.765Z,100623.79
2023-02-23T07:22:08.714Z,100617.64
2023-02-23T07:24:37.482Z,100620.64
2023-02-23T07:27:05.455Z,100621.48
2023-02-23T07:29:33.376Z,100620.39
2023-02-23T07:32:01.458Z,100616.27
2023-02-23T07:34:29.770Z,100619.64
2023-02-23T07:36:57.790Z,100616.20
2023-02-23T07:39:25.967Z,100608.56
2023-02-23T07:41:54.072Z,100605.18
2023-02-23T07:44:22.266Z,100606.67
2023-02-23T07:46:50.566Z,100605.95
2023-02-23T07:49:18.701Z,100605.75
2023-02-23T07:51:47.342Z,100608.02
2023-02-23T07:54:15.913Z,100607.65
2023-02-23T07:56:44.566Z,100603.73
2023-02-23T07:59:12.747Z,100606.05
2023-02-23T08:01:40.938Z,100602.32
2023-02-23T08:04:09.286Z,100598.23
2023-02-23T08:06:37.344Z,100597.05
2023-02-23T08:09:07.350Z,100594.92
2023-02-23T08:11:35.436Z,100578.52
2023-02-23T08:14:03.538Z,100585.04
2023-02-23T08:16:33.454Z,100578.64
2023-02-23T08:19:01.935Z,100580.27
2023-02-23T08:21:31.229Z,100576.26
2023-02-23T08:23:59.215Z,100576.71
2023-02-23T08:26:27.234Z,100576.10
2023-02-23T08:28:55.877Z,100574.31
2023-02-23T08:31:25.161Z,100577.98
2023-02-23T08:33:53.755Z,100577.05
2023-02-23T08:36:22.238Z,100579.80
2023-02-23T08:38:50.866Z,100580.89
2023-02-23T08:41:19.155Z,100579.36
2023-02-23T08:43:48.849Z,100577.83
2023-02-23T08:46:18.991Z,100572.31
2023-02-23T08:48:47.200Z,100572.81
2023-02-23T08:51:15.292Z,100568.63
2023-02-23T08:53:45.793Z,100568.10
2023-02-23T08:56:15.280Z,100560.97
2023-02-23T08:58:44.071Z,100560.08
2023-02-23T09:01:22.353Z,100558.55
2023-02-23T09:03:50.713Z,100553.59
2023-02-23T09:06:23.132Z,100550.20
2023-02-23T09:08:54.204Z,100546.48
2023-02-23T09:11:24.248Z,100543.45
2023-02-23T09:13:52.436Z,100540.88
2023-02-23T09:16:20.399Z,100541.89
2023-02-23T09:18:48.797Z,100545.20
2023-02-23T09:21:21.190Z,100538.86
2023-02-23T09:23:51.354Z,100541.38
2023-02-23T09:26:20.269Z,100537.92
2023-02-23T09:28:49.487Z,100537.79
2023-02-23T09:31:22.346Z,100538.38
2023-02-23T09:33:53.847Z,100541.45
2023-02-23T09:36:26.409Z,100536.84
2023-02-23T09:38:57.171Z,100534.38
2023-02-23T09:41:50.502Z,100530.44
2023-02-23T09:44:29.599Z,100530.16
2023-02-23T09:47:51.115Z,100529.99
2023-02-23T09:50:30.208Z,100524.45
2023-02-23T09:53:10.021Z,100526.48
2023-02-23T09:55:42.084Z,100523.09
2023-02-23T09:58:24.201Z,100525.95
2023-02-23T10:01:09.920Z,100519.27
2023-02-23T10:03:53.949Z,100517.98
2023-02-23T10:06:22.501Z,100518.70
2023-02-23T10:09:19.437Z,100521.27
2023-02-23T10:12:13.074Z,100517.02
2023-02-23T10:15:06.556Z,100512.42
2023-02-23T10:17:44.896Z,100510.15
2023-02-23T10:20:50.918Z,100506.34
2023-02-23T10:23:28.668Z,100503.14
2023-02-23T10:26:02.216Z,100501.85
2023-02-23T10:28:36.578Z,100504.90
2023-02-23T10:31:26.523Z,100499.04
2023-02-23T10:33:58.703Z,100498.00
2023-02-23T10:36:36.356Z,100492.07
2023-02-23T10:39:08.324Z,100488.09
2023-02-23T10:41:37.236Z,100486.92
2023-02-23T10:44:16.935Z,100486.67
2023-02-23T10:46:50.321Z,100483.85
2023-02-23T10:49:23.331Z,100477.55
2023-02-23T10:51:52.358Z,100477.46
2023-02-23T10:54:44.652Z,100474.81
2023-02-23T10:57:39.906Z,100472.83
2023-02-23T11:00:18.187Z,100467.19
2023-02-23T11:02:47.892Z,100463.45
2023-02-23T11:05:34.324Z,100459.74
2023-02-23T11:08:39.451Z,100456.30
2023-02-23T11:11:16.990Z,100454.05
2023-02-23T11:13:50.172Z,100452.52
2023-02-23T11:16:22.804Z,100444.02
2023-02-23T11:19:04.012Z,100440.20
2023-02-23T11:21:35.792Z,100434.98
2023-02-23T11:24:32.976Z,100425.65
2023-02-23T11:27:06.984Z,100422.77
2023-02-23T11:29:43.440Z,100410.73
2023-02-23T11:32:22.202Z,100407.67
2023-02-23T11:35:22.520Z,100405.39
2023-02-23T11:37:50.451Z,100400.10
2023-02-23T11:40:26.205Z,100397.36
2023-02-23T11:43:09.790Z,100391.27
2023-02-23T11:45:50.390Z,100391.42
2023-02-23T11:48:34.901Z,100390.91
2023-02-23T11:51:03.342Z,100386.85
2023-02-23T11:53:40.245Z,100388.64
2023-02-23T11:56:10.975Z,100388.71
2023-02-23T11:58:44.342Z,100385.11
2023-02-23T12:01:16.975Z,100377.83
2023-02-23T12:03:51.577Z,100372.85
2023-02-23T12:06:46.056Z,100370.34
2023-02-23T12:09:34.164Z,100364.61
2023-02-23T12:12:13.616Z,100365.45
2023-02-23T12:14:53.720Z,100362.05
2023-02-23T12:17:27.855Z,100360.48
2023-02-23T12:20:02.940Z,100359.58
2023-02-23T12:22:42.180Z,100362.02
2023-02-23T12:25:28.696Z,100355.77
2023-02-23T12:28:19.395Z,100357.80
2023-02-23T12:30:59.045Z,100357.25
2023-02-23T12:33:55.390Z,100352.27
2023-02-23T12:36:47.284Z,100351.67
2023-02-23T12:39:31.533Z,100343.38
2023-02-23T12:42:43.108Z,100336.69
2023-02-23T12:45:55.127Z,100335.17
2023-02-23T12:48:54.928Z,100326.37
2023-02-23T12:52:02.542Z,100323.27
2023-02-23T12:54:32.692Z,100322.68
2023-02-23T12:57:33.991Z,100319.16
2023-02-23T13:00:33.604Z,100316.38
2023-02-23T13:03:36.752Z,100313.02
2023-02-23T13:06:30.736Z,100306.52
2023-02-23T13:09:30.612Z,100296.57
2023-02-23T13:12:12.126Z,100290.00
2023-02-23T13:15:18.393Z,100286.63
2023-02-23T13:18:39.148Z,100284.48
2023-02-23T13:21:26.948Z,100284.43
2023-02-23T13:24:29.771Z,100284.80
2023-02-23T13:27:43.537Z,100278.51
2023-02-23T13:30:12.526Z,100281.14
2023-02-23T13:32:40.701Z,100278.97
2023-02-23T13:35:16.558Z,100272.68
2023-02-23T13:38:35.988Z,100273.81
2023-02-23T13:41:22.104Z,100269.25
2023-02-23T13:44:00.511Z,100270.08
2023-02-23T13:46:46.177Z,100264.41
2023-02-23T13:49:42.056Z,100256.11
2023-02-23T13:52:42.438Z,100257.84
2023-02-23T13:55:51.257Z,100251.56
2023-02-23T13:58:28.776Z,100244.83
2023-02-23T14:01:20.555Z,100241.58
2023-02-23T14:03:59.732Z,100239.98
2023-02-23T14:06:34.100Z,100233.86
2023-02-23T14:09:23.824Z,100232.12
2023-02-23T14:12:19.155Z,100232.24
2023-02-23T14:14:47.286Z,100227.54
2023-02-23T14:17:15.176Z,100226.18
2023-02-23T14:20:06.737Z,100225.88
2023-02-23T14:22:34.979Z,100222.45
2023-02-23T14:25:38.911Z,100218.45
2023-02-23T14:28:34.939Z,100224.19
2023-02-23T14:31:20.654Z,100221.92
2023-02-23T14:33:59.141Z,100219.61
2023-02-23T14:36:33.724Z,100218.23
2023-02-23T14:39:09.253Z,100219.96
2023-02-23T14:41:59.949Z,100214.22
2023-02-23T14:44:31.822Z,100213.05
2023-02-23T14:46:59.724Z,100208.96
2023-02-23T14:49:31.825Z,100206.25
2023-02-23T14:52:08.283Z,100206.98
2023-02-23T14:54:39.810Z,100203.58
2023-02-23T14:57:22.760Z,100205.54
2023-02-23T14:59:59.664Z,100198.85
2023-02-23T15:02:30.989Z,100200.23
2023-02-23T15:04:59.731Z,100204.05
2023-02-23T15:07:38.325Z,100199.84
2023-02-23T15:10:38.950Z,100199.94
2023-02-23T15:13:33.764Z,100198.56
2023-02-23T15:16:09.052Z,100200.98
2023-02-23T15:18:40.961Z,100192.45
2023-02-23T15:21:17.354Z,100190.53
2023-02-23T15:23:51.936Z,100191.27
2023-02-23T15:26:31.849Z,100188.48
2023-02-23T15:29:19.390Z,100183.75
2023-02-23T15:31:52.686Z,100180.67
2023-02-23T15:34:30.762Z,100185.00
2023-02-23T15:37:03.512Z,100182.36
2023-02-23T15:39:53.802Z,100177.92
2023-02-23T15:42:32.601Z,100175.52
2023-02-23T15:45:04.564Z,100172.48
2023-02-23T15:47:37.592Z,100168.55
2023-02-23T15:50:34.944Z,100162.33
2023-02-23T15:53:22.521Z,100166.34
2023-02-23T15:55:51.593Z,100164.39
2023-02-23T15:58:56.095Z,100162.27
2023-02-23T16:01:30.918Z,100165.69
2023-02-23T16:04:14.377Z,100160.84
2023-02-23T16:07:18.581Z,100159.63
2023-02-23T16:09:53.660Z,100155.59
2023-02-23T16:12:35.783Z,100156.52
2023-02-23T16:15:22.885Z,100154.09
2023-02-23T16:18:05.753Z,100149.55
2023-02-23T16:20:41.280Z,100149.93
2023-02-23T16:23:33.793Z,100150.48
2023-02-23T16:26:41.317Z,100148.35
2023-02-23T16:29:17.879Z,100145.52
2023-02-23T16:31:55.425Z,100141.31
2023-02-23T16:34:44.521Z,100132.84
2023-02-23T16:37:22.957Z,100129.28
2023-02-23T16:39:51.693Z,100129.55
2023-02-23T16:42:41.530Z,100129.58
2023-02-23T16:45:16.216Z,100131.95
2023-02-23T16:47:49.733Z,100138.12
2023-02-23T16:50:24.266Z,100135.13
2023-02-23T16:52:53.329Z,100137.83
2023-02-23T16:55:26.140Z,100140.20
2023-02-23T16:58:02.272Z,100139.87
2023-02-23T17:00:33.245Z,100137.10
2023-02-23T17:03:06.155Z,100137.76
2023-02-23T17:05:34.295Z,100137.39
2023-02-23T17:08:02.831Z,100131.55
2023-02-23T17:10:34.679Z,100140.75
2023-02-23T17:13:14.103Z,100140.16
2023-02-23T17:15:56.433Z,100136.27
2023-02-23T17:18:29.258Z,100136.63
2023-02-23T17:21:01.013Z,100133.33
2023-02-23T17:23:50.516Z,100134.84
2023-02-23T17:26:25.865Z,100127.77
2023-02-23T17:28:54.052Z,100131.06
2023-02-23T17:31:24.822Z,100132.77
2023-02-23T17:33:55.310Z,100130.38
2023-02-23T17:36:23.941Z,100133.61
2023-02-23T17:38:58.455Z,100130.33
2023-02-23T17:41:27.207Z,100129.31
2023-02-23T17:43:55.248Z,100129.42
2023-02-23T17:46:24.070Z,100125.13
2023-02-23T17:48:53.981Z,100122.92
2023-02-23T17:51:23.604Z,100115.20
2023-02-23T17:53:52.045Z,100116.82
2023-02-23T17:56:20.526Z,100114.08
2023-02-23T17:58:50.810Z,100114.64
2023-02-23T18:01:19.979Z,100109.73
2023-02-23T18:03:49.849Z,100106.09
2023-02-23T18:06:17.863Z,100107.38
2023-02-23T18:08:45.963Z,100104.51
2023-02-23T18:11:18.451Z,100101.39
2023-02-23T18:13:48.028Z,100095.21
2023-02-23T18:16:17.143Z,100096.02
2023-02-23T18:18:48.031Z,100093.94
2023-02-23T18:21:22.226Z,100093.52
2023-02-23T18:23:51.657Z,100091.80
2023-02-23T18:26:23.167Z,100093.56
2023-02-23T18:28:51.628Z,100093.91
2023-02-23T18:31:24.668Z,100094.70
2023-02-23T18:33:53.632Z,100094.23
2023-02-23T18:36:31.739Z,100091.68
2023-02-23T18:39:08.140Z,100087.32
2023-02-23T18:41:36.265Z,100087.58
2023-02-23T18:44:09.053Z,100079.45
2023-02-23T18:46:37.696Z,100087.56
2023-02-23T18:49:06.179Z,100085.38
2023-02-23T18:51:38.953Z,100081.04
2023-02-23T18:54:13.329Z,100080.94
2023-02-23T18:56:41.369Z,100079.90
2023-02-23T18:59:10.275Z,100075.73
2023-02-23T19:01:47.816Z,100077.70
2023-02-23T19:04:16.002Z,100077.35
2023-02-23T19:06:47.104Z,100073.78
2023-02-23T19:09:19.707Z,100072.52
2023-02-23T19:11:48.829Z,100066.44
2023-02-23T19:14:19.898Z,100066.15
2023-02-23T19:16:49.275Z,100067.91
2023-02-23T19:19:18.355Z,100063.27
2023-02-23T19:21:46.339Z,100062.41
2023-02-23T19:24:14.299Z,100065.63
2023-02-23T19:26:43.273Z,100066.55
2023-02-23T19:29:11.196Z,100067.16
2023-02-23T19:31:39.391Z,100065.48
2023-02-23T19:34:08.655Z,100062.13
2023-02-23T19:36:36.882Z,100062.73
2023-02-23T19:39:10.462Z,100058.73
2023-02-23T19:41:40.037Z,100053.83
2023-02-23T19:44:08.872Z,100052.86
2023-02-23T19:46:37.751Z,100047.65
2023-02-23T19:49:06.428Z,100041.84
2023-02-23T19:51:35.041Z,100042.98
2023-02-23T19:54:04.467Z,100041.80
2023-02-23T19:56:32.571Z,100042.58
2023-02-23T19:59:03.738Z,100040.67
2023-02-23T20:01:31.727Z,100039.18
2023-02-23T20:04:06.729Z,100033.60
2023-02-23T20:06:44.375Z,100028.15
2023-02-23T20:09:14.358Z,100028.04
2023-02-23T20:11:42.916Z,100025.81
2023-02-23T20:14:12.632Z,100026.73
2023-02-23T20:16:41.150Z,100020.99
2023-02-23T20:19:11.828Z,100020.13
2023-02-23T20:21:42.280Z,100018.07
2023-02-23T20:24:12.886Z,100014.60
2023-02-23T20:26:41.762Z,100014.64
2023-02-23T20:29:18.061Z,100010.02
2023-02-23T20:31:51.581Z,100009.70
2023-02-23T20:34:24.389Z,100009.95
2023-02-23T20:36:55.666Z,100009.99
2023-02-23T20:39:24.344Z,100006.62
2023-02-23T20:41:56.321Z,100005.95
2023-02-23T20:44:25.439Z,100000.45
2023-02-23T20:46:53.433Z,100001.63
2023-02-23T20:49:22.752Z,100001.21
2023-02-23T20:51:51.167Z,99997.27
2023-02-23T20:54:20.066Z,99994.77
2023-02-23T20:56:59.148Z,99988.70
2023-02-23T20:59:30.941Z,99989.42
2023-02-23T21:02:02.153Z,99991.71
2023-02-23T21:04:30.691Z,99990.32
2023-02-23T21:07:00.067Z,99989.95
2023-02-23T21:09:31.083Z,99987.95
2023-02-23T21:11:59.529Z,99985.60
2023-02-23T21:14:27.638Z,99985.95
2023-02-23T21:16:55.743Z,99986.72
2023-02-23T21:19:24.368Z,99983.27
2023-02-23T21:21:58.328Z,99980.29
2023-02-23T21:24:26.996Z,99981.21
2023-02-23T21:26:55.023Z,99983.34
2023-02-23T21:29:24.180Z,99983.48
2023-02-23T21:31:52.337Z,99982.20
2023-02-23T21:34:20.512Z,99977.05
2023-02-23T21:36:49.892Z,99973.14
2023-02-23T21:39:17.874Z,99966.80
2023-02-23T21:41:45.848Z,99963.66
2023-02-23T21:44:13.951Z,99962.63
2023-02-23T21:46:41.966Z,99956.58
2023-02-23T21:49:10.142Z,99955.92
2023-02-23T21:51:39.262Z,99952.83
2023-02-23T21:54:07.222Z,99951.02
2023-02-23T21:56:36.728Z,99950.81
2023-02-23T21:59:08.230Z,99946.33
2023-02-23T22:01:40.729Z,99944.85
2023-02-23T22:04:14.180Z,99945.62
2023-02-23T22:06:44.380Z,99941.27
2023-02-23T22:09:15.435Z,99943.70
2023-02-23T22:11:47.226Z,99943.13
2023-02-23T22:14:17.024Z,99943.52
2023-02-23T22:16:46.121Z,99941.27
2023-02-23T22:19:14.238Z,99936.90
2023-02-23T22:21:44.307Z,99933.21
2023-02-23T22:24:14.150Z,99937.23
2023-02-23T22:26:57.811Z,99932.62
2023-02-23T22:29:26.796Z,99928.73
2023-02-23T22:31:55.361Z,99927.55
2023-02-23T22:34:23.464Z,99927.23
2023-02-23T22:36:51.655Z,99923.84
2023-02-23T22:39:20.168Z,99920.45
2023-02-23T22:41:48.884Z,99914.77
2023-02-23T22:44:21.390Z,99913.00
2023-02-23T22:46:49.605Z,99910.29
2023-02-23T22:49:19.853Z,99904.29
2023-02-23T22:51:48.290Z,99903.66
2023-02-23T22:54:17.319Z,99899.22
2023-02-23T22:56:46.792Z,99896.15
2023-02-23T22:59:17.551Z,99892.30
2023-02-23T23:01:47.525Z,99890.38
2023-02-23T23:04:16.023Z,99890.48
2023-02-23T23:06:44.241Z,99888.58
2023-02-23T23:09:12.870Z,99886.58
2023-02-23T23:11:41.754Z,99879.89
2023-02-23T23:14:14.200Z,99873.67
2023-02-23T23:16:47.820Z,99871.15
2023-02-23T23:19:26.167Z,99863.36
2023-02-23T23:21:55.820Z,99866.80
2023-02-23T23:24:24.756Z,99867.64
2023-02-23T23:27:00.032Z,99871.71
2023-02-23T23:29:32.337Z,99870.34
2023-02-23T23:32:02.732Z,99868.41
2023-02-23T23:34:34.394Z,99864.19
2023-02-23T23:37:02.912Z,99856.89
2023-02-23T23:39:31.029Z,99856.63
2023-02-23T23:42:01.693Z,99855.02
2023-02-23T23:44:29.887Z,99856.48
2023-02-23T23:46:58.435Z,99850.64
2023-02-23T23:49:26.681Z,99844.17
2023-02-23T23:51:56.648Z,99841.52
2023-02-23T23:54:31.171Z,99840.30
2023-02-23T23:57:05.679Z,99836.04
2023-02-23T23:59:35.463Z,99830.73
